Time;durP1;ratioP1;P1;durP2;ratioP2;P2;SDS_P1;SDS_P2;PMS_P1;PMS_P2;Temp;Humidity;BMP_temperature;BMP_pressure;BME280_temperature;BME280_humidity;BME280_pressure;Samples;Min_cycle;Max_cycle;Signal;HPM_P1;HPM_P2
2023/11/04 00:00:30;;;;;;;4.70;2.80;;;;;;;9.48;100.00;97776.86;181146;1251;44823;-61
2023/11/04 00:04:57;;;;;;;4.30;2.60;;;;;;;9.52;100.00;97784.64;181150;1250;59968;-60
2023/11/04 00:09:51;;;;;;;3.80;2.40;;;;;;;9.50;100.00;97790.41;181060;1250;43892;-60
2023/11/04 00:13:58;;;;;;;;;;;;;;;9.56;100.00;97804.34;181248;1254;45446;-60
2023/11/04 00:18:02;;;;;;;5.40;2.20;;;;;;;9.58;100.00;97809.60;180767;1255;45926;-60
2023/11/04 00:22:06;;;;;;;6.80;3.00;;;;;;;9.61;100.00;97815.67;180638;1251;44874;-60
2023/11/04 00:26:10;;;;;;;4.30;2.90;;;;;;;9.65;100.00;97823.02;181183;1251;59749;-60
2023/11/04 00:30:43;;;;;;;4.90;3.70;;;;;;;9.65;100.00;97830.25;181201;1251;44988;-60
2023/11/04 00:34:47;;;;;;;5.10;2.70;;;;;;;9.67;100.00;97839.38;181423;1254;45203;-60
2023/11/04 00:39:17;;;;;;;6.40;2.50;;;;;;;9.62;100.00;97843.02;181396;1250;45936;-60
2023/11/04 00:43:20;;;;;;;6.70;3.60;;;;;;;9.65;100.00;97852.79;181374;1251;43997;-60
2023/11/04 00:47:24;;;;;;;5.40;3.10;;;;;;;9.61;100.00;97851.98;181141;1250;58979;-60
2023/11/04 00:51:27;;;;;;;10.00;2.70;;;;;;;9.58;100.00;97857.05;181104;1250;46025;-60
2023/11/04 00:55:56;;;;;;;3.50;2.00;;;;;;;9.57;100.00;97860.91;181174;1251;45968;-61
2023/11/04 00:59:59;;;;;;;6.30;2.50;;;;;;;9.57;100.00;97861.77;181182;1252;45898;-60
2023/11/04 01:04:05;;;;;;;3.20;2.10;;;;;;;9.53;100.00;97863.10;181263;1251;43625;-60
2023/11/04 01:08:24;;;;;;;8.10;3.80;;;;;;;9.57;100.00;97864.39;181212;1251;58416;-60
2023/11/04 01:12:27;;;;;;;4.00;2.30;;;;;;;9.56;100.00;97870.77;181190;1251;46050;-61
2023/11/04 01:16:30;;;;;;;3.30;2.50;;;;;;;9.55;100.00;97874.89;181114;1251;43920;-60
2023/11/04 01:20:34;;;;;;;2.80;1.90;;;;;;;9.59;100.00;97878.20;181154;1251;46130;-61
2023/11/04 01:24:37;;;;;;;7.70;2.40;;;;;;;9.60;100.00;97882.67;181293;1251;45978;-60
2023/11/04 01:28:44;;;;;;;5.70;3.10;;;;;;;9.60;100.00;97886.39;181320;1250;58512;-61
2023/11/04 01:32:48;;;;;;;5.30;1.90;;;;;;;9.59;100.00;97893.80;181270;1251;44933;-61
2023/11/04 01:37:25;;;;;;;5.10;1.90;;;;;;;9.56;100.00;97895.31;181142;1250;44738;-60
2023/11/04 01:41:29;;;;;;;6.50;2.60;;;;;;;9.58;100.00;97899.19;181370;1250;45882;-62
2023/11/04 01:45:33;;;;;;;3.60;2.70;;;;;;;9.61;100.00;97900.31;181220;1251;43536;-61
2023/11/04 01:49:36;;;;;;;9.60;2.10;;;;;;;9.53;100.00;97902.03;181382;1251;58947;-61
2023/11/04 01:53:43;;;;;;;6.10;1.80;;;;;;;9.56;100.00;97907.14;181241;1251;46025;-60
2023/11/04 01:57:48;;;;;;;2.90;1.60;;;;;;;9.58;100.00;97913.88;181104;1250;44675;-60
2023/11/04 02:01:53;;;;;;;5.40;2.60;;;;;;;9.62;100.00;97915.36;181224;1250;44750;-60
2023/11/04 02:06:01;;;;;;;5.40;2.00;;;;;;;9.64;100.00;97914.06;181051;1250;45076;-60
2023/11/04 02:10:06;;;;;;;9.40;3.00;;;;;;;9.65;100.00;97919.64;181237;1251;58187;-61
2023/11/04 02:14:13;;;;;;;9.30;2.80;;;;;;;9.62;100.00;97925.09;181275;1250;44721;-61
2023/11/04 02:18:17;;;;;;;6.40;2.20;;;;;;;9.64;100.00;97924.02;181084;1250;46037;-61
2023/11/04 02:22:21;;;;;;;2.60;1.70;;;;;;;9.66;100.00;97929.91;181249;1250;46044;-61
2023/11/04 02:26:50;;;;;;;5.30;2.90;;;;;;;9.70;100.00;97925.36;181083;1251;43726;-61
2023/11/04 02:30:54;;;;;;;6.60;1.50;;;;;;;9.73;100.00;97928.66;181283;1250;58291;-61
2023/11/04 02:35:06;;;;;;;2.90;1.60;;;;;;;9.74;100.00;97931.50;181117;1251;45355;-60
2023/11/04 02:39:09;;;;;;;1.90;1.30;;;;;;;9.77;100.00;97932.44;181214;1251;45843;-61
2023/11/04 02:43:14;;;;;;;5.20;1.70;;;;;;;9.80;100.00;97936.54;181171;1251;45933;-61
2023/11/04 02:47:17;;;;;;;1.60;1.40;;;;;;;9.80;100.00;97940.18;181016;1250;45949;-60
2023/11/04 02:51:21;;;;;;;2.20;1.00;;;;;;;9.80;100.00;97942.44;181238;1251;58411;-62
2023/11/04 02:55:24;;;;;;;6.80;1.30;;;;;;;9.81;100.00;97945.41;181204;1251;43636;-61
2023/11/04 02:59:30;;;;;;;4.30;2.00;;;;;;;9.81;100.00;97947.86;181185;1250;44472;-60
2023/11/04 03:03:33;;;;;;;5.30;2.10;;;;;;;9.79;100.00;97949.44;181286;1251;45923;-61
2023/11/04 03:08:04;;;;;;;3.00;1.20;;;;;;;9.75;100.00;97952.10;181293;1251;45875;-61
2023/11/04 03:12:08;;;;;;;1.90;1.10;;;;;;;9.70;100.00;97957.54;181305;1251;57700;-62
2023/11/04 03:17:02;;;;;;;3.30;1.10;;;;;;;9.68;100.00;97961.52;181306;1251;43650;-61
2023/11/04 03:21:08;;;;;;;2.30;0.90;;;;;;;9.63;100.00;97959.82;181374;1251;43519;-61
2023/11/04 03:25:15;;;;;;;1.00;0.70;;;;;;;9.60;100.00;97959.84;181315;1251;45990;-60
2023/11/04 03:29:19;;;;;;;1.30;0.70;;;;;;;9.53;100.00;97960.72;181373;1251;44051;-60
2023/11/04 03:33:22;;;;;;;1.20;0.70;;;;;;;9.51;100.00;97969.45;181167;1251;58370;-64
2023/11/04 03:37:29;;;;;;;0.90;0.70;;;;;;;9.48;100.00;97973.80;181116;1251;45175;-63
2023/11/04 03:41:33;;;;;;;0.80;0.60;;;;;;;9.43;100.00;97975.88;181277;1251;45107;-61
2023/11/04 03:45:44;;;;;;;2.00;1.30;;;;;;;9.40;100.00;97975.14;181252;1251;44777;-61
2023/11/04 03:49:51;;;;;;;1.00;0.60;;;;;;;9.37;100.00;97978.60;181289;1251;44815;-61
2023/11/04 03:53:55;;;;;;;1.50;0.80;;;;;;;9.33;100.00;97985.53;181102;1251;280236;-61
2023/11/04 03:58:01;;;;;;;1.10;0.80;;;;;;;9.33;100.00;97983.77;181244;1251;45868;-62
2023/11/04 04:02:07;;;;;;;1.70;0.90;;;;;;;9.38;100.00;97986.63;181301;1250;46076;-61
2023/11/04 04:06:16;;;;;;;1.50;1.00;;;;;;;9.37;100.00;97982.41;181200;1250;44864;-61
2023/11/04 04:10:20;;;;;;;1.50;0.80;;;;;;;9.36;100.00;97979.86;181341;1251;44181;-61
2023/11/04 04:14:27;;;;;;;2.10;1.00;;;;;;;9.37;100.00;97977.96;181393;1251;58922;-60
2023/11/04 04:18:32;;;;;;;0.50;0.50;;;;;;;9.36;100.00;97976.40;181235;1251;45000;-62
2023/11/04 04:22:37;;;;;;;3.90;1.70;;;;;;;9.31;100.00;97977.27;181255;1250;43490;-62
2023/11/04 04:26:48;;;;;;;3.90;0.90;;;;;;;9.26;100.00;97983.11;181141;1250;45983;-61
2023/11/04 04:30:51;;;;;;;2.00;1.10;;;;;;;9.21;100.00;97991.08;181274;1251;46035;-62
2023/11/04 04:34:55;;;;;;;2.40;1.50;;;;;;;9.16;100.00;97993.99;181193;1250;58924;-62
2023/11/04 04:38:59;;;;;;;3.40;3.00;;;;;;;9.11;100.00;97998.80;181191;1251;44917;-62
2023/11/04 04:43:02;;;;;;;1.40;1.30;;;;;;;9.12;100.00;97998.63;181149;1251;44908;-62
2023/11/04 04:47:06;;;;;;;2.00;1.40;;;;;;;9.16;100.00;97997.11;181257;1251;43622;-61
2023/11/04 04:52:18;;;;;;;3.30;1.80;;;;;;;9.20;100.00;98001.30;181134;1250;43577;-62
2023/11/04 04:56:23;;;;;;;2.20;1.50;;;;;;;9.21;100.00;98006.50;181180;1250;59223;-62
2023/11/04 05:00:26;;;;;;;3.90;2.30;;;;;;;9.20;100.00;98014.80;181185;1250;46069;-62
2023/11/04 05:04:33;;;;;;;3.10;2.80;;;;;;;9.18;100.00;98014.05;181190;1251;45781;-62
2023/11/04 05:08:36;;;;;;;10.40;2.90;;;;;;;9.20;100.00;98016.02;181248;1250;45878;-62
2023/11/04 05:12:40;;;;;;;2.40;2.20;;;;;;;9.20;100.00;98017.55;180756;1254;44969;-61
2023/11/04 05:16:46;;;;;;;2.80;2.40;;;;;;;9.19;100.00;98023.16;180655;1250;58482;-62
2023/11/04 05:20:49;;;;;;;4.70;3.10;;;;;;;9.20;100.00;98033.50;181276;1250;43578;-62
2023/11/04 05:25:03;;;;;;;3.30;1.90;;;;;;;9.14;100.00;98035.92;181244;1251;43817;-62
2023/11/04 05:29:08;;;;;;;8.10;2.60;;;;;;;9.12;100.00;98041.55;181127;1250;45859;-62
2023/11/04 05:33:12;;;;;;;4.40;3.00;;;;;;;9.16;100.00;98051.95;181241;1250;46068;-62
2023/11/04 05:37:46;;;;;;;6.40;2.90;;;;;;;9.15;100.00;98052.63;181163;1251;58717;-62
2023/11/04 05:42:11;;;;;;;3.40;3.10;;;;;;;9.18;100.00;98055.50;181208;1251;44041;-62
2023/11/04 05:46:15;;;;;;;7.70;4.70;;;;;;;9.18;100.00;98055.33;181287;1251;43569;-63
2023/11/04 05:50:19;;;;;;;5.40;4.60;;;;;;;9.15;100.00;98058.59;181352;1250;45034;-63
2023/11/04 05:54:22;;;;;;;6.00;3.70;;;;;;;9.21;100.00;98066.05;181098;1250;43570;-63
2023/11/04 05:58:26;;;;;;;6.50;4.70;;;;;;;9.26;100.00;98068.21;181159;1251;59158;-64
2023/11/04 06:07:12;;;;;;;8.30;4.70;;;;;;;9.24;100.00;98075.80;158970;1259;46305;-63
2023/11/04 06:11:16;;;;;;;7.80;3.40;;;;;;;9.27;100.00;98077.91;179890;1261;45013;-64
2023/11/04 06:15:25;;;;;;;7.40;4.60;;;;;;;9.26;100.00;98074.67;180562;1258;44986;-64
2023/11/04 06:19:28;;;;;;;5.10;3.80;;;;;;;9.32;100.00;98080.52;180458;1259;58878;-65
2023/11/04 06:23:41;;;;;;;4.30;3.90;;;;;;;9.34;100.00;98085.54;180512;1259;45875;-64
2023/11/04 06:27:45;;;;;;;4.30;3.10;;;;;;;9.41;100.00;98091.12;180448;1259;43685;-64
2023/11/04 06:31:48;;;;;;;6.60;4.30;;;;;;;9.42;100.00;98098.05;180374;1259;45930;-64
2023/11/04 06:35:52;;;;;;;7.20;4.30;;;;;;;9.40;100.00;98101.99;180343;1259;43550;-64
2023/11/04 06:39:57;;;;;;;6.30;5.20;;;;;;;9.41;100.00;98104.38;180550;1259;58973;-64
2023/11/04 06:44:01;;;;;;;;;;;;;;;9.43;100.00;98111.05;180411;1258;43604;-65
2023/11/04 06:48:05;;;;;;;5.30;4.30;;;;;;;9.48;100.00;98119.15;180637;1259;45643;-65
2023/11/04 06:52:09;;;;;;;7.50;5.60;;;;;;;9.50;100.00;98117.86;180604;1259;44094;-66
2023/11/04 06:56:14;;;;;;;5.40;4.80;;;;;;;9.49;100.00;98116.57;180429;1260;43612;-66
2023/11/04 07:00:20;;;;;;;11.30;6.20;;;;;;;9.51;100.00;98113.14;180485;1261;59163;-65
2023/11/04 07:04:23;;;;;;;5.50;4.30;;;;;;;9.48;100.00;98107.11;180350;1258;43765;-66
2023/11/04 07:08:27;;;;;;;19.90;4.50;;;;;;;9.55;100.00;98111.66;180333;1259;44554;-65
2023/11/04 07:12:30;;;;;;;7.90;5.00;;;;;;;9.61;100.00;98112.06;180509;1257;44421;-65
2023/11/04 07:16:34;;;;;;;10.90;5.30;;;;;;;9.67;100.00;98116.88;180333;1257;45015;-66
2023/11/04 07:20:39;;;;;;;9.60;4.60;;;;;;;9.72;100.00;98121.80;180229;1258;57217;-66
2023/11/04 07:24:46;;;;;;;6.20;5.30;;;;;;;9.78;100.00;98126.95;180324;1258;45064;-66
2023/11/04 07:28:51;;;;;;;8.50;4.90;;;;;;;9.90;100.00;98125.10;180361;1259;44568;-66
2023/11/04 07:32:54;;;;;;;12.00;5.10;;;;;;;10.03;100.00;98125.95;180315;1258;43586;-66
2023/11/04 07:37:02;;;;;;;20.10;5.60;;;;;;;10.21;100.00;98128.52;180399;1258;45063;-66
2023/11/04 07:41:07;;;;;;;6.90;5.60;;;;;;;10.40;100.00;98128.17;180530;1258;58301;-66
2023/11/04 07:45:22;;;;;;;7.50;5.00;;;;;;;10.58;100.00;98126.32;180368;1258;43796;-66
2023/11/04 07:49:27;;;;;;;4.80;4.20;;;;;;;10.74;100.00;98132.43;180489;1256;45980;-66
2023/11/04 07:53:31;;;;;;;6.30;4.40;;;;;;;10.86;100.00;98129.42;180439;1258;45840;-66
2023/11/04 07:57:42;;;;;;;4.40;3.80;;;;;;;10.95;100.00;98126.96;180359;1258;43903;-66
2023/11/04 08:01:46;;;;;;;11.20;5.70;;;;;;;10.96;100.00;98129.96;180392;1258;57253;-66
2023/11/04 08:05:49;;;;;;;9.20;5.30;;;;;;;10.95;100.00;98126.34;180380;1258;44869;-67
2023/11/04 08:09:53;;;;;;;8.30;6.30;;;;;;;10.96;100.00;98131.79;180522;1258;43770;-67
2023/11/04 08:13:57;;;;;;;11.10;5.80;;;;;;;10.95;100.00;98126.30;180453;1258;44542;-66
2023/11/04 08:18:02;;;;;;;6.30;4.50;;;;;;;10.97;100.00;98130.29;180261;1258;46009;-66
2023/11/04 08:22:05;;;;;;;10.60;4.90;;;;;;;10.97;100.00;98128.65;180426;1258;58956;-66
2023/11/04 08:26:11;;;;;;;4.90;4.20;;;;;;;10.98;100.00;98126.88;180368;1258;46047;-67
2023/11/04 08:30:15;;;;;;;10.70;4.90;;;;;;;11.01;100.00;98121.61;180558;1258;43530;-67
2023/11/04 08:34:22;;;;;;;7.30;4.90;;;;;;;11.11;100.00;98117.15;180622;1258;45968;-67
2023/11/04 08:38:26;;;;;;;10.50;4.60;;;;;;;11.20;100.00;98112.10;180576;1258;45988;-65
2023/11/04 08:42:34;;;;;;;7.80;3.50;;;;;;;11.39;100.00;98104.80;180479;1258;58719;-66
2023/11/04 08:46:42;;;;;;;7.90;4.60;;;;;;;11.53;100.00;98100.77;180549;1258;43542;-66
2023/11/04 08:50:50;;;;;;;;;;;;;;;11.66;100.00;98096.55;180483;1258;45940;-66
2023/11/04 08:54:54;;;;;;;4.40;2.40;;;;;;;11.75;100.00;98093.16;180468;1258;43580;-65
2023/11/04 08:58:58;;;;;;;4.20;2.70;;;;;;;11.82;100.00;98096.43;180424;1258;45055;-64
2023/11/04 09:03:01;;;;;;;5.10;2.80;;;;;;;11.95;100.00;98098.02;180505;1258;57187;-66
2023/11/04 09:07:08;;;;;;;14.50;3.90;;;;;;;12.02;98.67;98090.11;180523;1258;45849;-66
2023/11/04 09:11:17;;;;;;;4.00;2.20;;;;;;;12.03;96.93;98090.66;180319;1258;44605;-66
2023/11/04 09:15:20;;;;;;;6.90;3.30;;;;;;;12.01;95.85;98092.88;180361;1260;46020;-66
2023/11/04 09:19:24;;;;;;;3.80;3.40;;;;;;;12.03;95.27;98088.00;180279;1258;43674;-66
2023/11/04 09:23:30;;;;;;;4.80;2.90;;;;;;;12.05;96.05;98087.20;180365;1258;58611;-67
2023/11/04 09:27:33;;;;;;;5.00;3.10;;;;;;;12.11;95.58;98086.45;180434;1258;46056;-65
2023/11/04 09:31:37;;;;;;;5.60;2.60;;;;;;;12.16;95.51;98086.73;180369;1258;43868;-67
2023/11/04 09:36:06;;;;;;;6.50;4.20;;;;;;;12.25;94.53;98082.48;180387;1258;43746;-67
2023/11/04 09:40:14;;;;;;;6.40;3.80;;;;;;;12.29;93.62;98078.33;180330;1259;43845;-67
2023/11/04 09:44:18;;;;;;;3.90;2.70;;;;;;;12.33;92.47;98078.73;180261;1260;58653;-66
2023/11/04 09:48:22;;;;;;;6.60;3.10;;;;;;;12.41;93.40;98075.73;180255;1258;43674;-66
2023/11/04 09:52:33;;;;;;;3.40;2.20;;;;;;;12.46;92.49;98070.64;180360;1259;45940;-66
2023/11/04 09:56:37;;;;;;;7.10;2.40;;;;;;;12.55;91.77;98065.98;180272;1259;43815;-66
2023/11/04 10:00:46;;;;;;;2.80;2.40;;;;;;;12.59;91.19;98061.27;180250;1258;43601;-66
2023/11/04 10:04:52;;;;;;;4.60;2.10;;;;;;;12.69;90.56;98055.49;180243;1258;58459;-67
2023/11/04 10:08:57;;;;;;;4.60;3.10;;;;;;;12.79;92.16;98050.04;180176;1259;44702;-66
2023/11/04 10:13:00;;;;;;;7.00;1.90;;;;;;;12.88;90.81;98041.27;180289;1258;44476;-66
2023/11/04 10:17:05;;;;;;;4.60;2.20;;;;;;;12.95;89.89;98030.02;180222;1258;43923;-66
2023/11/04 10:21:09;;;;;;;4.40;1.90;;;;;;;12.93;86.54;98030.27;180293;1257;45239;-66
2023/11/04 10:25:14;;;;;;;6.50;2.00;;;;;;;12.93;87.92;98025.33;180180;1258;57912;-66
2023/11/04 10:29:18;;;;;;;3.80;1.50;;;;;;;12.84;87.90;98017.15;180276;1259;46041;-66
2023/11/04 10:33:23;;;;;;;2.50;2.00;;;;;;;12.78;87.69;98024.04;180398;1256;45943;-66
2023/11/04 10:37:33;;;;;;;2.00;1.20;;;;;;;12.74;88.42;98024.88;180303;1256;43738;-67
2023/11/04 10:41:45;;;;;;;4.80;1.80;;;;;;;12.67;87.02;98017.05;180358;1258;43856;-67
2023/11/04 10:46:02;;;;;;;4.50;2.20;;;;;;;12.63;86.88;98010.81;180363;1258;57933;-67
2023/11/04 10:50:16;;;;;;;2.70;1.80;;;;;;;12.49;86.28;98002.61;180413;1258;43831;-67
2023/11/04 10:54:57;;;;;;;4.10;2.20;;;;;;;12.50;87.48;98000.11;180635;1258;44641;-67
2023/11/04 11:15:42;;;;;;;7.70;1.90;;;;;;;12.60;85.10;97984.87;176509;1285;580182;-67
2023/11/04 11:19:52;;;;;;;5.40;2.20;;;;;;;12.56;85.43;97988.24;171524;1269;10156781;-66
2023/11/04 11:24:08;;;;;;;2.30;2.10;;;;;;;12.52;85.70;97985.51;178376;1267;46114;-66
2023/11/04 11:28:17;;;;;;;4.30;2.50;;;;;;;12.52;85.35;97982.94;180614;1254;43548;-66
2023/11/04 11:32:44;;;;;;;4.40;2.70;;;;;;;12.48;85.87;97972.29;180678;1254;45926;-66
2023/11/04 11:36:49;;;;;;;6.10;2.10;;;;;;;12.46;86.06;97971.69;180667;1254;58917;-66
2023/11/04 11:40:57;;;;;;;6.20;2.20;;;;;;;12.38;83.61;97965.48;180363;1254;46108;-66
2023/11/04 11:45:01;;;;;;;2.10;2.00;;;;;;;12.36;84.13;97957.60;180642;1254;43527;-66
2023/11/04 11:49:05;;;;;;;9.00;2.60;;;;;;;12.39;84.59;97955.29;180710;1254;43922;-66
2023/11/04 11:53:10;;;;;;;8.10;3.80;;;;;;;12.34;85.25;97954.72;180650;1257;44890;-66
2023/11/04 11:57:14;;;;;;;7.40;4.90;;;;;;;12.35;85.20;97946.92;180647;1255;57806;-67
2023/11/04 12:01:44;;;;;;;17.60;11.40;;;;;;;12.37;84.88;97941.23;180636;1255;45887;-67
2023/11/04 12:05:47;;;;;;;7.60;5.50;;;;;;;12.39;85.41;97931.83;180579;1257;43482;-66
2023/11/04 12:09:51;;;;;;;5.40;2.80;;;;;;;12.39;85.45;97924.66;180557;1256;45845;-66
2023/11/04 12:13:55;;;;;;;4.80;3.40;;;;;;;12.43;83.85;97915.16;180388;1259;45891;-67
2023/11/04 12:18:05;;;;;;;11.50;6.80;;;;;;;12.45;84.25;97906.92;180478;1255;59069;-68
2023/11/04 12:22:10;;;;;;;18.30;7.70;;;;;;;12.47;84.83;97901.48;180460;1257;45939;-66
2023/11/04 12:26:14;;;;;;;4.30;2.40;;;;;;;12.49;85.18;97901.21;180526;1255;45990;-66
2023/11/04 12:30:20;;;;;;;1.70;1.50;;;;;;;12.48;83.71;97895.98;180519;1255;44610;-66
2023/11/04 12:34:24;;;;;;;2.60;1.70;;;;;;;12.51;84.40;97888.05;180770;1257;43704;-65
2023/11/04 12:38:32;;;;;;;2.20;1.80;;;;;;;12.56;81.66;97881.46;180326;1258;58561;-65
2023/11/04 12:42:37;;;;;;;4.60;1.30;;;;;;;12.67;82.78;97877.78;180700;1255;43705;-65
2023/11/04 12:46:41;;;;;;;1.30;0.80;;;;;;;12.68;80.94;97881.92;180706;1254;44239;-65
2023/11/04 12:50:45;;;;;;;2.50;1.60;;;;;;;12.66;78.74;97877.16;180637;1254;45952;-65
2023/11/04 12:54:49;;;;;;;3.70;1.50;;;;;;;12.62;78.11;97870.66;180839;1254;45917;-65
2023/11/04 12:58:53;;;;;;;11.50;3.30;;;;;;;12.61;78.82;97870.21;180582;1254;57647;-65
2023/11/04 13:02:57;;;;;;;9.80;4.90;;;;;;;12.60;79.34;97865.69;180594;1255;46054;-65
2023/11/04 13:07:01;;;;;;;4.60;1.40;;;;;;;12.63;78.90;97864.88;180567;1258;43542;-65
2023/11/04 13:11:06;;;;;;;3.60;1.30;;;;;;;12.60;77.90;97863.48;180590;1255;44919;-65
2023/11/04 13:15:13;;;;;;;2.50;1.80;;;;;;;12.60;79.37;97864.30;180542;1254;44971;-65
2023/11/04 13:19:17;;;;;;;2.40;1.20;;;;;;;12.64;78.58;97864.52;180626;1258;59236;-65
2023/11/04 13:23:20;;;;;;;1.90;1.50;;;;;;;12.66;78.40;97866.03;180741;1256;43758;-65
2023/11/04 13:27:25;;;;;;;2.50;2.10;;;;;;;12.76;80.78;97864.27;180594;1255;45210;-65
2023/11/04 13:32:10;;;;;;;7.40;2.00;;;;;;;12.81;80.74;97859.30;180658;1257;43534;-64
2023/11/04 13:40:56;;;;;;;3.90;1.60;;;;;;;12.86;80.03;97857.08;174475;1257;57876;-64
2023/11/04 13:45:03;;;;;;;6.10;3.80;;;;;;;12.84;78.99;97856.75;180303;1257;45025;-64
2023/11/04 13:49:07;;;;;;;3.30;2.30;;;;;;;12.88;79.22;97852.83;180377;1259;43794;-65
2023/11/04 13:53:19;;;;;;;3.20;2.40;;;;;;;12.89;79.57;97846.74;180244;1259;46000;-65
2023/11/04 13:57:23;;;;;;;3.10;2.00;;;;;;;12.90;78.25;97839.98;180365;1259;44936;-65
2023/11/04 14:01:32;;;;;;;3.20;1.50;;;;;;;12.89;78.86;97842.80;180264;1259;58510;-65
2023/11/04 14:05:35;;;;;;;2.10;1.30;;;;;;;12.79;77.58;97836.09;180370;1257;45257;-65
2023/11/04 14:09:38;;;;;;;4.10;2.70;;;;;;;12.72;79.69;97832.29;180249;1256;45452;-65
2023/11/04 14:13:42;;;;;;;4.00;2.20;;;;;;;12.62;81.32;97827.91;180264;1258;43655;-64
2023/11/04 14:18:13;;;;;;;11.00;4.50;;;;;;;12.53;80.21;97823.23;180318;1260;46016;-63
2023/11/04 14:22:18;;;;;;;7.50;4.60;;;;;;;12.43;81.30;97823.08;180280;1259;58768;-63
2023/11/04 14:26:23;;;;;;;10.00;5.20;;;;;;;12.37;81.27;97818.91;180273;1258;43737;-64
2023/11/04 14:30:27;;;;;;;8.40;6.40;;;;;;;12.30;81.64;97810.50;180253;1257;44944;-64
2023/11/04 14:34:30;;;;;;;9.30;4.40;;;;;;;12.18;82.16;97802.66;180201;1257;45963;-64
2023/11/04 14:38:46;;;;;;;6.80;3.90;;;;;;;12.04;82.65;97797.77;180200;1256;46010;-64
2023/11/04 14:42:50;;;;;;;7.70;4.90;;;;;;;11.94;83.68;97797.28;180385;1261;58710;-64
2023/11/04 14:46:55;;;;;;;6.40;4.90;;;;;;;11.81;83.65;97795.73;180382;1257;44675;-64
2023/11/04 14:51:39;;;;;;;12.30;6.70;;;;;;;11.66;83.95;97787.31;180174;1257;43591;-64
2023/11/04 14:55:44;;;;;;;5.90;4.10;;;;;;;11.33;87.12;97784.13;180258;1258;45989;-64
2023/11/04 14:59:48;;;;;;;35.70;23.70;;;;;;;11.14;88.43;97785.80;180035;1257;45041;-65
2023/11/04 15:03:53;;;;;;;44.90;23.00;;;;;;;11.01;89.23;97781.66;180101;1257;58672;-64
2023/11/04 15:07:57;;;;;;;18.00;9.00;;;;;;;10.87;89.35;97775.38;180297;1259;43708;-65
2023/11/04 15:12:03;;;;;;;9.10;5.30;;;;;;;10.72;90.27;97773.28;180194;1258;43736;-65
2023/11/04 15:16:09;;;;;;;8.20;4.10;;;;;;;10.63;89.80;97769.48;180161;1257;46042;-64
2023/11/04 15:20:13;;;;;;;8.00;4.50;;;;;;;10.46;90.95;97764.61;180181;1260;44924;-65
2023/11/04 15:24:22;;;;;;;5.40;3.60;;;;;;;10.38;91.37;97760.53;181868;1258;57917;-65
2023/11/04 15:28:26;;;;;;;4.60;2.90;;;;;;;10.28;93.12;97765.11;181668;1257;43131;-65
2023/11/04 15:32:29;;;;;;;7.20;4.20;;;;;;;10.10;94.02;97761.02;181971;1257;43388;-65
2023/11/04 15:36:32;;;;;;;9.20;6.10;;;;;;;9.93;95.78;97752.66;181594;1257;43467;-66
2023/11/04 15:40:35;;;;;;;20.50;15.30;;;;;;;9.72;97.81;97743.67;181893;1257;42978;-65
2023/11/04 15:44:38;;;;;;;31.00;12.10;;;;;;;9.58;99.96;97730.05;181813;1257;58203;-65
2023/11/04 15:48:41;;;;;;;14.70;8.00;;;;;;;9.51;100.00;97728.06;181895;1257;43083;-66
2023/11/04 15:52:45;;;;;;;10.90;5.10;;;;;;;9.52;100.00;97733.32;181859;1257;43094;-67
2023/11/04 15:56:48;;;;;;;7.40;4.40;;;;;;;9.59;100.00;97726.15;181881;1257;45352;-67
2023/11/04 16:00:52;;;;;;;8.30;5.00;;;;;;;9.66;100.00;97719.55;181960;1257;43796;-67
2023/11/04 16:04:55;;;;;;;24.70;18.40;;;;;;;9.72;100.00;97714.56;181908;1258;58203;-67
2023/11/04 16:08:58;;;;;;;10.80;5.10;;;;;;;9.76;100.00;97705.48;181878;1257;43805;-66
2023/11/04 16:13:03;;;;;;;17.20;9.70;;;;;;;9.72;100.00;97696.19;181846;1257;43683;-67
2023/11/04 16:17:06;;;;;;;18.90;10.30;;;;;;;9.69;100.00;97690.23;181956;1258;43807;-63
2023/11/04 16:21:09;;;;;;;12.10;7.20;;;;;;;9.61;100.00;97686.86;181892;1257;43071;-63
2023/11/04 16:25:12;;;;;;;17.80;12.10;;;;;;;9.59;100.00;97687.80;181869;1257;57916;-64
2023/11/04 16:29:15;;;;;;;9.60;6.40;;;;;;;9.56;100.00;97685.20;181844;1257;43877;-64
2023/11/04 16:33:19;;;;;;;10.50;6.70;;;;;;;9.44;100.00;97680.87;181686;1257;43159;-64
2023/11/04 16:37:22;;;;;;;6.60;5.70;;;;;;;9.39;100.00;97682.19;181877;1257;43087;-63
2023/11/04 16:41:25;;;;;;;5.70;5.00;;;;;;;9.40;100.00;97684.77;181818;1257;43185;-64
2023/11/04 16:45:28;;;;;;;11.20;6.10;;;;;;;9.37;100.00;97674.33;181830;1257;58039;-64
2023/11/04 16:49:31;;;;;;;10.90;5.80;;;;;;;9.33;100.00;97668.99;181870;1256;43700;-65
2023/11/04 16:53:34;;;;;;;10.40;6.80;;;;;;;9.28;100.00;97667.18;181719;1257;43196;-65
2023/11/04 16:57:37;;;;;;;11.20;7.30;;;;;;;9.22;100.00;97660.97;181403;1260;43642;-64
2023/11/04 17:02:08;;;;;;;16.70;8.70;;;;;;;9.19;100.00;97650.02;181407;1260;43679;-65
2023/11/04 17:06:11;;;;;;;10.60;7.30;;;;;;;9.21;100.00;97637.04;181328;1260;58245;-65
2023/11/04 17:15:16;;;;;;;16.30;7.90;;;;;;;9.18;100.00;97628.60;181392;1260;43024;-64
2023/11/04 17:19:19;;;;;;;10.80;7.10;;;;;;;9.14;100.00;97622.00;181301;1263;43300;-65
2023/11/04 17:23:22;;;;;;;9.60;5.10;;;;;;;9.09;100.00;97617.09;181362;1260;43038;-64
2023/11/04 17:27:25;;;;;;;8.40;4.70;;;;;;;9.08;100.00;97616.30;181398;1260;58114;-65
2023/11/04 17:31:30;;;;;;;6.30;5.10;;;;;;;9.05;100.00;97613.39;181297;1260;43798;-65
2023/11/04 17:35:33;;;;;;;8.60;6.00;;;;;;;9.00;100.00;97612.70;181382;1260;42960;-65
2023/11/04 17:39:36;;;;;;;5.60;4.50;;;;;;;8.90;100.00;97614.02;181342;1263;43463;-64
2023/11/04 17:44:05;;;;;;;9.60;6.50;;;;;;;8.88;100.00;97621.27;181196;1262;43071;-64
2023/11/04 17:48:08;;;;;;;12.30;7.40;;;;;;;8.87;100.00;97630.96;181326;1263;57945;-64
2023/11/04 17:52:11;;;;;;;10.30;5.40;;;;;;;8.84;100.00;97622.99;181289;1262;43114;-65
2023/11/04 17:56:15;;;;;;;7.40;5.10;;;;;;;8.74;100.00;97615.37;181306;1263;44457;-64
2023/11/04 18:00:18;;;;;;;6.90;5.30;;;;;;;8.69;100.00;97616.90;181307;1263;43516;-65
2023/11/04 18:04:21;;;;;;;10.90;5.50;;;;;;;8.65;100.00;97615.81;181314;1262;42999;-64
2023/11/04 18:08:24;;;;;;;9.50;5.40;;;;;;;8.67;100.00;97614.14;181276;1263;57898;-64
2023/11/04 18:12:34;;;;;;;9.50;5.40;;;;;;;8.64;100.00;97610.85;181280;1263;43344;-65
2023/11/04 18:16:37;;;;;;;7.70;5.80;;;;;;;8.54;100.00;97606.66;181313;1262;42933;-65
2023/11/04 18:20:42;;;;;;;8.40;6.80;;;;;;;8.58;100.00;97615.48;181271;1263;43543;-65
2023/11/04 18:24:45;;;;;;;6.90;4.70;;;;;;;8.52;100.00;97606.38;181292;1263;43020;-64
2023/11/04 18:28:48;;;;;;;13.90;7.20;;;;;;;8.51;100.00;97600.31;181267;1262;57903;-64
2023/11/04 18:32:51;;;;;;;9.60;6.50;;;;;;;8.43;100.00;97582.64;181211;1262;43223;-64
2023/11/04 18:36:59;;;;;;;8.90;6.10;;;;;;;8.42;100.00;97574.11;181277;1262;43047;-64
2023/11/04 18:41:04;;;;;;;12.00;9.20;;;;;;;8.41;100.00;97554.58;181242;1263;43080;-65
2023/11/04 18:45:08;;;;;;;15.30;11.40;;;;;;;8.35;100.00;97540.64;181259;1262;43752;-65
2023/11/04 18:49:11;;;;;;;7.40;5.20;;;;;;;8.35;100.00;97528.52;181250;1262;59602;-65
2023/11/04 18:53:16;;;;;;;18.40;10.00;;;;;;;8.35;100.00;97522.13;181294;1262;43857;-65
2023/11/04 18:57:19;;;;;;;20.40;8.70;;;;;;;8.29;100.00;97506.45;181272;1262;43806;-64
2023/11/04 19:01:34;;;;;;;13.80;8.30;;;;;;;8.29;100.00;97501.42;181274;1262;43859;-64
2023/11/04 19:05:37;;;;;;;15.10;10.30;;;;;;;8.25;100.00;97483.59;181261;1262;43174;-65
2023/11/04 19:09:47;;;;;;;8.20;5.50;;;;;;;8.21;100.00;97466.02;181243;1263;57090;-65
2023/11/04 19:13:50;;;;;;;8.10;5.10;;;;;;;8.21;100.00;97472.19;181233;1262;43670;-65
2023/11/04 19:17:53;;;;;;;5.60;4.70;;;;;;;8.16;100.00;97477.84;181272;1261;43005;-66
2023/11/04 19:21:57;;;;;;;4.50;3.70;;;;;;;8.14;100.00;97492.55;181283;1262;43928;-65
2023/11/04 19:26:14;;;;;;;5.30;4.50;;;;;;;8.12;100.00;97507.16;181288;1262;43590;-66
2023/11/04 19:30:17;;;;;;;8.80;5.60;;;;;;;8.08;100.00;97511.88;181270;1262;58528;-66
2023/11/04 19:34:23;;;;;;;9.10;4.70;;;;;;;8.06;100.00;97511.35;181274;1263;43143;-65
2023/11/04 19:39:04;;;;;;;;;;;;;;;8.00;100.00;97500.02;181339;1262;43794;-66